createdAt,value
2023-03-02T00:01:54.802Z,12.33
2023-03-02T00:04:38.481Z,11.00
2023-03-02T00:07:10.259Z,11.25
2023-03-02T00:09:38.628Z,12.00
2023-03-02T00:12:08.329Z,12.00
2023-03-02T00:14:38.286Z,11.25
2023-03-02T00:17:08.222Z,12.25
2023-03-02T00:19:37.236Z,12.00
2023-03-02T00:22:10.073Z,11.00
2023-03-02T00:24:39.216Z,11.25
2023-03-02T00:27:08.040Z,12.00
2023-03-02T00:29:36.469Z,11.00
2023-03-02T00:32:06.463Z,13.00
2023-03-02T00:34:34.886Z,12.00
2023-03-02T00:37:03.878Z,12.00
2023-03-02T00:39:32.200Z,12.00
2023-03-02T00:42:00.881Z,12.25
2023-03-02T00:44:29.410Z,11.25
2023-03-02T00:46:58.043Z,12.00
2023-03-02T00:49:26.230Z,12.25
2023-03-02T00:51:54.831Z,11.00
2023-03-02T00:54:23.084Z,11.00
2023-03-02T00:56:51.710Z,11.25
2023-03-02T00:59:27.613Z,11.33
2023-03-02T01:02:07.163Z,11.50
2023-03-02T01:04:38.737Z,11.25
2023-03-02T01:07:11.330Z,11.00
2023-03-02T01:09:40.768Z,10.25
2023-03-02T01:12:11.486Z,11.00
2023-03-02T01:14:42.845Z,10.00
2023-03-02T01:17:12.327Z,11.00
2023-03-02T01:19:41.957Z,11.00
2023-03-02T01:22:11.112Z,11.00
2023-03-02T01:24:39.291Z,11.25
2023-03-02T01:27:07.799Z,11.25
2023-03-02T01:29:36.722Z,11.00
2023-03-02T01:32:05.853Z,11.00
2023-03-02T01:34:34.068Z,11.00
2023-03-02T01:37:02.700Z,11.25
2023-03-02T01:39:30.914Z,11.00
2023-03-02T01:41:59.646Z,10.25
2023-03-02T01:44:40.063Z,10.25
2023-03-02T01:47:34.117Z,10.00
2023-03-02T01:50:23.492Z,10.00
2023-03-02T01:52:56.890Z,10.00
2023-03-02T01:55:26.964Z,11.33
2023-03-02T01:57:57.031Z,10.00
2023-03-02T02:00:29.220Z,10.25
2023-03-02T02:03:09.040Z,10.00
2023-03-02T02:05:40.886Z,10.25
2023-03-02T02:08:09.958Z,10.00
2023-03-02T02:10:40.322Z,10.00
2023-03-02T02:13:12.020Z,11.00
2023-03-02T02:15:40.985Z,10.25
2023-03-02T02:18:09.766Z,10.25
2023-03-02T02:20:42.772Z,11.00
2023-03-02T02:23:42.248Z,11.50
2023-03-02T02:26:14.316Z,10.00
2023-03-02T02:29:02.290Z,10.00
2023-03-02T02:31:51.385Z,10.25
2023-03-02T02:34:25.875Z,10.00
2023-03-02T02:36:57.476Z,10.00
2023-03-02T02:39:31.936Z,10.00
2023-03-02T02:42:04.745Z,11.00
2023-03-02T02:44:33.709Z,10.00
2023-03-02T02:47:02.388Z,10.00
2023-03-02T02:49:39.654Z,10.25
2023-03-02T02:52:11.155Z,10.50
2023-03-02T02:54:40.106Z,11.00
2023-03-02T02:57:09.845Z,10.33
2023-03-02T03:00:04.400Z,10.00
2023-03-02T03:02:46.014Z,10.33
2023-03-02T03:05:17.765Z,10.25
2023-03-02T03:07:47.018Z,10.25
2023-03-02T03:10:35.879Z,10.00
2023-03-02T03:13:04.104Z,10.25
2023-03-02T03:15:32.769Z,10.25
2023-03-02T03:18:01.036Z,10.00
2023-03-02T03:20:30.303Z,10.25
2023-03-02T03:23:00.752Z,10.00
2023-03-02T03:25:32.280Z,10.00
2023-03-02T03:28:04.422Z,10.25
2023-03-02T03:30:34.623Z,10.00
2023-03-02T03:33:03.388Z,10.00
2023-03-02T03:35:31.909Z,11.00
2023-03-02T03:38:00.617Z,11.00
2023-03-02T03:40:29.287Z,10.25
2023-03-02T03:42:57.897Z,11.00
2023-03-02T03:45:26.444Z,11.25
2023-03-02T03:47:54.757Z,10.25
2023-03-02T03:50:23.543Z,11.25
2023-03-02T03:52:52.237Z,11.00
2023-03-02T03:55:28.914Z,11.25
2023-03-02T03:57:57.675Z,12.00
2023-03-02T04:00:26.859Z,12.00
2023-03-02T04:03:00.978Z,13.25
2023-03-02T04:05:31.981Z,12.50
2023-03-02T04:08:02.467Z,12.00
2023-03-02T04:10:32.614Z,12.00
2023-03-02T04:13:02.433Z,14.00
2023-03-02T04:15:32.063Z,14.33
2023-03-02T04:18:01.283Z,14.25
2023-03-02T04:20:30.100Z,13.25
2023-03-02T04:22:58.898Z,12.00
2023-03-02T04:25:28.971Z,13.00
2023-03-02T04:28:12.231Z,13.25
2023-03-02T04:30:42.447Z,14.00
2023-03-02T04:33:10.773Z,13.00
2023-03-02T04:35:39.573Z,13.00
2023-03-02T04:38:07.882Z,14.33
2023-03-02T04:40:36.556Z,14.00
2023-03-02T04:43:04.746Z,14.25
2023-03-02T04:45:33.766Z,14.00
2023-03-02T04:48:01.926Z,14.00
2023-03-02T04:50:30.628Z,14.33
2023-03-02T04:52:58.858Z,14.33
2023-03-02T04:55:28.136Z,14.00
2023-03-02T04:57:56.250Z,15.00
2023-03-02T05:00:25.373Z,14.00
2023-03-02T05:02:53.518Z,15.25
2023-03-02T05:05:24.512Z,15.00
2023-03-02T05:07:53.041Z,15.00
2023-03-02T05:10:22.965Z,15.00
2023-03-02T05:12:55.024Z,14.00
2023-03-02T05:15:31.065Z,16.00
2023-03-02T05:18:00.387Z,16.00
2023-03-02T05:20:30.587Z,14.75
2023-03-02T05:23:04.128Z,16.50
2023-03-02T05:25:35.045Z,15.25
2023-03-02T05:28:04.044Z,15.50
2023-03-02T05:30:37.801Z,16.25
2023-03-02T05:33:06.184Z,16.00
2023-03-02T05:35:34.724Z,16.00
2023-03-02T05:38:03.008Z,16.00
2023-03-02T05:40:32.498Z,15.00
2023-03-02T05:43:00.736Z,16.00
2023-03-02T05:45:35.449Z,16.00
2023-03-02T05:48:04.566Z,17.00
2023-03-02T05:50:33.690Z,16.00
2023-03-02T05:53:02.947Z,17.00
2023-03-02T05:55:37.352Z,15.50
2023-03-02T05:58:09.350Z,16.25
2023-03-02T06:00:37.949Z,15.00
2023-03-02T06:03:06.377Z,16.00
2023-03-02T06:05:35.671Z,16.25
2023-03-02T06:08:04.304Z,16.67
2023-03-02T06:10:33.890Z,17.00
2023-03-02T06:13:02.192Z,16.00
2023-03-02T06:15:30.843Z,17.00
2023-03-02T06:17:59.052Z,18.25
2023-03-02T06:20:27.569Z,15.50
2023-03-02T06:22:55.822Z,17.25
2023-03-02T06:25:25.173Z,17.00
2023-03-02T06:27:53.997Z,15.25
2023-03-02T06:30:24.773Z,16.25
2023-03-02T06:32:53.101Z,17.00
2023-03-02T06:35:21.911Z,17.25
2023-03-02T06:37:50.273Z,16.25
2023-03-02T06:40:18.966Z,16.33
2023-03-02T06:42:47.238Z,17.00
2023-03-02T06:45:16.023Z,16.00
2023-03-02T06:47:44.249Z,17.00
2023-03-02T06:50:13.137Z,17.25
2023-03-02T06:52:41.415Z,16.25
2023-03-02T06:55:10.244Z,16.00
2023-03-02T06:57:38.666Z,16.00
2023-03-02T07:00:18.473Z,17.00
2023-03-02T07:02:47.011Z,17.00
2023-03-02T07:05:16.254Z,18.33
2023-03-02T07:07:44.711Z,16.33
2023-03-02T07:10:13.670Z,17.25
2023-03-02T07:12:42.478Z,17.25
2023-03-02T07:15:12.525Z,18.50
2023-03-02T07:17:43.004Z,16.00
2023-03-02T07:20:13.960Z,18.25
2023-03-02T07:22:43.156Z,17.00
2023-03-02T07:25:14.087Z,17.00
2023-03-02T07:27:42.900Z,18.75
2023-03-02T07:30:12.422Z,18.00
2023-03-02T07:32:41.258Z,17.00
2023-03-02T07:35:10.310Z,17.33
2023-03-02T07:37:38.769Z,17.00
2023-03-02T07:40:08.023Z,17.50
2023-03-02T07:42:36.785Z,18.00
2023-03-02T07:45:06.867Z,17.00
2023-03-02T07:47:35.110Z,18.00
2023-03-02T07:50:04.126Z,18.25
2023-03-02T07:52:32.398Z,17.00
2023-03-02T07:55:00.956Z,17.00
2023-03-02T07:57:29.211Z,17.00
2023-03-02T07:59:57.792Z,17.25
2023-03-02T08:02:26.141Z,16.00
2023-03-02T08:04:54.777Z,17.25
2023-03-02T08:07:22.984Z,17.25
2023-03-02T08:09:51.696Z,17.00
2023-03-02T08:12:19.864Z,16.00
2023-03-02T08:14:48.587Z,16.33
2023-03-02T08:17:16.800Z,16.25
2023-03-02T08:19:45.486Z,16.00
2023-03-02T08:22:14.340Z,17.25
2023-03-02T08:24:43.166Z,17.25
2023-03-02T08:27:14.256Z,16.50
2023-03-02T08:29:43.180Z,17.00
2023-03-02T08:32:11.804Z,16.00
2023-03-02T08:34:40.556Z,16.00
2023-03-02T08:37:08.852Z,17.25
2023-03-02T08:39:37.460Z,16.00
2023-03-02T08:42:05.798Z,16.00
2023-03-02T08:44:34.454Z,18.00
2023-03-02T08:47:02.681Z,17.00
2023-03-02T08:49:31.653Z,17.00
2023-03-02T08:52:00.888Z,17.00
2023-03-02T08:54:29.484Z,17.00
2023-03-02T08:56:57.778Z,17.00
2023-03-02T08:59:27.230Z,15.00
2023-03-02T09:01:55.536Z,16.00
2023-03-02T09:04:24.464Z,16.00
2023-03-02T09:06:52.787Z,16.00
2023-03-02T09:09:21.471Z,15.00
2023-03-02T09:11:49.807Z,16.00
2023-03-02T09:14:18.771Z,15.25
2023-03-02T09:16:47.593Z,15.25
2023-03-02T09:19:16.610Z,15.25
2023-03-02T09:21:44.901Z,16.00
2023-03-02T09:24:13.668Z,16.25
2023-03-02T09:26:41.962Z,15.25
2023-03-02T09:29:11.200Z,16.00
2023-03-02T09:31:39.568Z,14.33
2023-03-02T09:34:08.335Z,17.00
2023-03-02T09:36:36.937Z,15.00
2023-03-02T09:39:09.800Z,15.25
2023-03-02T09:41:53.522Z,15.00
2023-03-02T09:44:55.944Z,15.00
2023-03-02T09:47:35.913Z,14.00
2023-03-02T09:50:28.257Z,14.25
2023-03-02T09:53:05.585Z,15.00
2023-03-02T09:55:36.944Z,15.00
2023-03-02T09:58:15.773Z,15.50
2023-03-02T10:00:45.741Z,15.00
2023-03-02T10:03:17.792Z,15.00
2023-03-02T10:05:54.256Z,15.25
2023-03-02T10:08:26.167Z,15.25
2023-03-02T10:11:13.448Z,14.00
2023-03-02T10:14:22.173Z,15.00
2023-03-02T10:17:15.708Z,13.00
2023-03-02T10:19:53.971Z,13.00
2023-03-02T10:22:27.998Z,14.00
2023-03-02T10:25:14.824Z,13.00
2023-03-02T10:27:46.224Z,14.00
2023-03-02T10:30:22.337Z,14.25
2023-03-02T10:32:52.813Z,15.25
2023-03-02T10:35:26.324Z,14.00
2023-03-02T10:38:02.156Z,14.25
2023-03-02T10:40:39.766Z,14.25
2023-03-02T10:43:18.773Z,13.50
2023-03-02T10:45:59.591Z,14.00
2023-03-02T10:48:28.632Z,14.00
2023-03-02T10:50:59.437Z,14.25
2023-03-02T10:53:29.298Z,14.00
2023-03-02T10:55:57.567Z,13.50
2023-03-02T10:58:31.928Z,13.25
2023-03-02T11:01:02.991Z,12.25
2023-03-02T11:03:33.278Z,13.00
2023-03-02T11:06:20.009Z,14.00
2023-03-02T11:09:05.617Z,12.25
2023-03-02T11:11:34.816Z,13.00
2023-03-02T11:14:15.214Z,13.50
2023-03-02T11:16:43.745Z,13.25
2023-03-02T11:19:20.156Z,13.00
2023-03-02T11:22:15.296Z,14.25
2023-03-02T11:24:49.603Z,14.25
2023-03-02T11:27:24.948Z,14.25
2023-03-02T11:29:58.015Z,13.25
2023-03-02T11:32:33.099Z,12.25
2023-03-02T11:35:11.554Z,13.25
2023-03-02T11:37:47.279Z,13.00
2023-03-02T11:40:56.127Z,13.50
2023-03-02T11:43:24.578Z,14.25
2023-03-02T11:46:10.890Z,13.75
2023-03-02T11:48:47.339Z,14.25
2023-03-02T11:51:23.201Z,14.00
2023-03-02T11:54:48.474Z,15.00
2023-03-02T11:57:26.322Z,14.25
2023-03-02T11:59:55.811Z,14.25
2023-03-02T12:02:25.368Z,14.50
2023-03-02T12:05:09.018Z,14.00
2023-03-02T12:07:37.779Z,14.50
2023-03-02T12:10:21.709Z,14.00
2023-03-02T12:13:18.164Z,14.00
2023-03-02T12:15:48.328Z,14.25
2023-03-02T12:18:23.492Z,14.00
2023-03-02T12:21:06.572Z,14.33
2023-03-02T12:23:37.637Z,14.00
2023-03-02T12:26:07.899Z,13.33
2023-03-02T12:28:39.599Z,13.00
2023-03-02T12:31:13.409Z,14.75
2023-03-02T12:33:48.593Z,13.00
2023-03-02T12:36:27.865Z,14.00
2023-03-02T12:39:12.676Z,14.00
2023-03-02T12:41:56.170Z,13.00
2023-03-02T12:44:47.975Z,14.00
2023-03-02T12:47:28.170Z,13.00
2023-03-02T12:50:06.564Z,13.00
2023-03-02T12:52:36.648Z,13.33
2023-03-02T12:55:20.330Z,14.00
2023-03-02T12:57:50.746Z,13.50
2023-03-02T13:00:23.602Z,12.33
2023-03-02T13:02:54.079Z,15.50
2023-03-02T13:05:29.936Z,14.00
2023-03-02T13:08:12.287Z,12.75
2023-03-02T13:10:49.664Z,13.75
2023-03-02T13:13:21.274Z,13.00
2023-03-02T13:15:51.151Z,12.50
2023-03-02T13:18:24.240Z,12.00
2023-03-02T13:20:53.389Z,15.00
2023-03-02T13:23:21.892Z,13.25
2023-03-02T13:25:54.549Z,13.67
2023-03-02T13:28:30.546Z,14.00
2023-03-02T13:31:07.858Z,12.25
2023-03-02T13:33:44.648Z,13.25
2023-03-02T13:36:20.969Z,13.25
2023-03-02T13:38:54.576Z,13.25
2023-03-02T13:41:31.270Z,12.25
2023-03-02T13:44:00.393Z,12.25
2023-03-02T13:46:35.360Z,13.33
2023-03-02T13:49:11.256Z,12.25
2023-03-02T13:51:41.389Z,12.25
2023-03-02T13:54:22.401Z,12.00
2023-03-02T13:56:51.489Z,12.00
2023-03-02T13:59:20.786Z,12.25
2023-03-02T14:01:49.725Z,12.00
2023-03-02T14:04:23.407Z,12.25
2023-03-02T14:06:53.736Z,13.00
2023-03-02T14:09:22.206Z,13.00
2023-03-02T14:11:55.281Z,11.00
2023-03-02T14:14:25.754Z,12.25
2023-03-02T14:16:54.259Z,13.00
2023-03-02T14:19:22.468Z,14.00
2023-03-02T14:21:50.923Z,12.00
2023-03-02T14:24:19.056Z,13.00
2023-03-02T14:26:48.424Z,13.00
2023-03-02T14:29:27.648Z,13.00
2023-03-02T14:32:00.425Z,12.00
2023-03-02T14:34:28.641Z,13.00
2023-03-02T14:36:59.199Z,14.33
2023-03-02T14:39:55.430Z,12.00
2023-03-02T14:42:24.270Z,13.00
2023-03-02T14:44:52.808Z,14.50
2023-03-02T14:47:21.998Z,14.33
2023-03-02T14:49:50.238Z,12.25
2023-03-02T14:52:34.046Z,13.00
2023-03-02T14:55:07.219Z,13.00
2023-03-02T14:57:38.724Z,14.25
2023-03-02T15:00:09.619Z,13.00
2023-03-02T15:02:38.806Z,13.00
2023-03-02T15:05:08.313Z,14.00
2023-03-02T15:07:39.142Z,13.50
2023-03-02T15:10:08.945Z,13.00
2023-03-02T15:12:37.645Z,13.25
2023-03-02T15:15:06.219Z,12.50
2023-03-02T15:17:34.904Z,13.00
2023-03-02T15:20:03.773Z,13.00
2023-03-02T15:22:33.178Z,13.00
2023-03-02T15:25:01.385Z,13.25
2023-03-02T15:27:29.818Z,14.00
2023-03-02T15:29:58.017Z,13.25
2023-03-02T15:32:26.867Z,14.00
2023-03-02T15:34:55.120Z,14.00
2023-03-02T15:37:23.734Z,15.00
2023-03-02T15:39:56.091Z,14.75
2023-03-02T15:42:24.765Z,14.25
2023-03-02T15:44:52.887Z,13.00
2023-03-02T15:47:21.830Z,14.00
2023-03-02T15:49:49.938Z,13.00
2023-03-02T15:52:20.190Z,13.00
2023-03-02T15:54:48.308Z,13.25
2023-03-02T15:57:17.869Z,13.00
2023-03-02T15:59:46.461Z,15.00
2023-03-02T16:02:15.607Z,13.00
2023-03-02T16:04:43.906Z,12.00
2023-03-02T16:07:12.417Z,13.00
2023-03-02T16:09:40.518Z,13.33
2023-03-02T16:12:09.005Z,13.50
2023-03-02T16:14:37.212Z,13.00
2023-03-02T16:17:05.785Z,12.00
2023-03-02T16:19:33.911Z,13.75
2023-03-02T16:22:02.479Z,15.00
2023-03-02T16:24:30.614Z,13.25
2023-03-02T16:26:59.484Z,14.25
2023-03-02T16:29:27.802Z,15.25
2023-03-02T16:31:56.484Z,13.00
2023-03-02T16:34:24.795Z,16.00
2023-03-02T16:36:53.333Z,16.25
2023-03-02T16:39:21.565Z,14.75
2023-03-02T16:41:51.795Z,15.50
2023-03-02T16:44:20.284Z,15.33
2023-03-02T16:46:49.177Z,16.00
2023-03-02T16:49:17.383Z,14.50
2023-03-02T16:51:46.177Z,15.25
2023-03-02T16:54:16.793Z,16.25
2023-03-02T16:57:03.628Z,17.25
2023-03-02T16:59:31.825Z,17.25
2023-03-02T17:02:00.425Z,17.00
2023-03-02T17:04:29.009Z,17.00
2023-03-02T17:07:00.881Z,17.00
2023-03-02T17:09:30.482Z,17.00
2023-03-02T17:11:59.315Z,17.50
2023-03-02T17:14:28.271Z,17.00
2023-03-02T17:16:57.185Z,16.00
2023-03-02T17:19:27.240Z,17.25
2023-03-02T17:22:02.571Z,17.00
2023-03-02T17:24:31.427Z,17.25
2023-03-02T17:27:00.183Z,18.25
2023-03-02T17:29:28.679Z,17.50
2023-03-02T17:31:57.692Z,16.50
2023-03-02T17:34:30.802Z,19.00
2023-03-02T17:37:00.808Z,20.00
2023-03-02T17:39:29.503Z,18.00
2023-03-02T17:41:58.213Z,20.25
2023-03-02T17:44:27.747Z,19.00
2023-03-02T17:46:56.595Z,18.00
2023-03-02T17:49:24.917Z,19.50
2023-03-02T17:51:53.666Z,18.00
2023-03-02T17:54:22.141Z,20.25
2023-03-02T17:56:51.172Z,21.00
2023-03-02T17:59:19.575Z,20.00
2023-03-02T18:01:48.314Z,18.50
2023-03-02T18:04:16.667Z,21.00
2023-03-02T18:06:45.524Z,20.00
2023-03-02T18:09:13.941Z,20.00
2023-03-02T18:11:43.032Z,21.25
2023-03-02T18:14:15.122Z,22.00
2023-03-02T18:16:43.962Z,20.00
2023-03-02T18:19:12.372Z,21.00
2023-03-02T18:21:42.212Z,21.00
2023-03-02T18:24:10.656Z,19.75
2023-03-02T18:26:39.703Z,20.00
2023-03-02T18:29:08.304Z,20.25
2023-03-02T18:31:37.446Z,21.50
2023-03-02T18:34:05.887Z,20.25
2023-03-02T18:36:34.620Z,21.00
2023-03-02T18:39:04.216Z,21.00
2023-03-02T18:41:33.036Z,22.00
2023-03-02T18:44:01.585Z,20.00
2023-03-02T18:46:31.726Z,21.00
2023-03-02T18:49:01.216Z,20.50
2023-03-02T18:51:29.880Z,21.00
2023-03-02T18:53:58.198Z,23.25
2023-03-02T18:56:27.110Z,23.25
2023-03-02T18:58:55.832Z,21.25
2023-03-02T19:01:24.524Z,22.25
2023-03-02T19:03:57.271Z,24.00
2023-03-02T19:06:26.027Z,22.00
2023-03-02T19:08:54.952Z,24.25
2023-03-02T19:11:23.736Z,21.25
2023-03-02T19:13:52.141Z,22.00
2023-03-02T19:16:20.999Z,22.00
2023-03-02T19:18:50.284Z,23.50
2023-03-02T19:21:19.081Z,22.25
2023-03-02T19:23:47.797Z,24.25
2023-03-02T19:26:16.531Z,23.00
2023-03-02T19:28:44.965Z,20.00
2023-03-02T19:31:14.006Z,22.00
2023-03-02T19:33:42.898Z,22.75
2023-03-02T19:36:11.921Z,21.25
2023-03-02T19:38:44.668Z,23.50
2023-03-02T19:41:16.936Z,23.00
2023-03-02T19:43:46.321Z,22.00
2023-03-02T19:46:16.231Z,21.33
2023-03-02T19:48:44.717Z,21.50
2023-03-02T19:51:14.915Z,21.00
2023-03-02T19:53:44.070Z,19.25
2023-03-02T19:56:14.862Z,19.00
2023-03-02T19:58:54.022Z,22.75
2023-03-02T20:01:26.037Z,22.00
2023-03-02T20:03:56.075Z,21.50
2023-03-02T20:06:30.670Z,23.00
2023-03-02T20:09:01.677Z,23.00
2023-03-02T20:11:31.050Z,23.25
2023-03-02T20:14:02.845Z,22.50
2023-03-02T20:16:35.838Z,22.33
2023-03-02T20:19:04.746Z,24.25
2023-03-02T20:21:34.892Z,23.25
2023-03-02T20:24:03.276Z,23.75
2023-03-02T20:26:32.439Z,21.00
2023-03-02T20:29:03.858Z,23.50
2023-03-02T20:31:33.641Z,22.25
2023-03-02T20:34:05.700Z,22.50
2023-03-02T20:36:36.950Z,23.00
2023-03-02T20:39:09.875Z,24.33
2023-03-02T20:41:40.558Z,23.00
2023-03-02T20:44:11.147Z,24.50
2023-03-02T20:46:46.882Z,24.00
2023-03-02T20:49:18.142Z,22.25
2023-03-02T20:51:54.468Z,24.00
2023-03-02T20:54:27.855Z,25.00
2023-03-02T20:56:58.431Z,23.00
2023-03-02T20:59:32.738Z,22.00
2023-03-02T21:02:03.495Z,24.00
2023-03-02T21:04:34.733Z,23.00
2023-03-02T21:07:05.024Z,23.00
2023-03-02T21:09:34.851Z,25.00
2023-03-02T21:12:05.705Z,24.00
2023-03-02T21:14:35.486Z,23.00
2023-03-02T21:17:04.880Z,23.25
2023-03-02T21:19:35.931Z,22.00
2023-03-02T21:22:04.372Z,22.25
2023-03-02T21:24:32.694Z,23.67
2023-03-02T21:27:02.765Z,23.00
2023-03-02T21:29:31.040Z,24.00
2023-03-02T21:31:59.740Z,22.50
2023-03-02T21:34:28.054Z,21.25
2023-03-02T21:36:58.008Z,23.00
2023-03-02T21:39:26.308Z,21.00
2023-03-02T21:41:55.117Z,23.00
2023-03-02T21:44:24.108Z,21.50
2023-03-02T21:46:52.782Z,21.50
2023-03-02T21:49:22.873Z,23.50
2023-03-02T21:51:51.621Z,21.75
2023-03-02T21:54:19.900Z,21.00
2023-03-02T21:56:48.567Z,23.50
2023-03-02T21:59:16.888Z,23.00
2023-03-02T22:01:45.496Z,21.25
2023-03-02T22:04:14.237Z,22.25
2023-03-02T22:06:42.780Z,22.00
2023-03-02T22:09:12.001Z,24.00
2023-03-02T22:11:40.708Z,23.67
2023-03-02T22:14:14.592Z,22.50
2023-03-02T22:16:46.827Z,22.00
2023-03-02T22:19:31.771Z,22.25
2023-03-02T22:22:03.430Z,24.00
2023-03-02T22:24:33.210Z,23.00
2023-03-02T22:27:30.296Z,21.00
2023-03-02T22:30:00.049Z,21.25
2023-03-02T22:32:38.032Z,22.00
2023-03-02T22:35:20.381Z,22.67
2023-03-02T22:37:49.519Z,23.00
2023-03-02T22:40:30.427Z,23.00
2023-03-02T22:43:12.238Z,22.00
2023-03-02T22:45:41.066Z,22.00
2023-03-02T22:48:15.880Z,22.00
2023-03-02T22:50:46.521Z,20.25
2023-03-02T22:53:32.722Z,24.00
2023-03-02T22:56:03.165Z,22.25
2023-03-02T22:58:40.481Z,20.25
2023-03-02T23:01:24.059Z,22.00
2023-03-02T23:04:17.879Z,21.00
2023-03-02T23:06:49.187Z,22.00
2023-03-02T23:09:29.312Z,24.00
2023-03-02T23:12:05.673Z,22.00
2023-03-02T23:14:51.096Z,21.25
2023-03-02T23:17:35.478Z,21.25
2023-03-02T23:20:07.186Z,22.00
2023-03-02T23:22:36.233Z,20.50
2023-03-02T23:25:06.230Z,21.00
2023-03-02T23:27:34.481Z,21.00
2023-03-02T23:30:03.952Z,21.33
2023-03-02T23:32:32.248Z,21.25
2023-03-02T23:35:00.774Z,21.00
2023-03-02T23:37:28.984Z,20.00
2023-03-02T23:39:57.621Z,23.00
2023-03-02T23:42:25.869Z,21.00
2023-03-02T23:44:55.810Z,19.50
2023-03-02T23:47:23.936Z,20.00
2023-03-02T23:49:52.474Z,21.00
2023-03-02T23:52:20.679Z,20.50
2023-03-02T23:54:49.148Z,19.67
2023-03-02T23:57:17.646Z,20.00
2023-03-02T23:59:46.184Z,21.00
